createdAt,value
2024-04-15T00:01:45.378Z,5.10
2024-04-15T00:04:14.405Z,4.60
2024-04-15T00:06:41.598Z,5.10
2024-04-15T00:09:08.678Z,6.20
2024-04-15T00:11:35.766Z,5.60
2024-04-15T00:14:03.194Z,5.50
2024-04-15T00:16:30.608Z,5.40
2024-04-15T00:18:57.763Z,5.80
2024-04-15T00:21:24.892Z,5.10
2024-04-15T00:23:51.957Z,5.30
2024-04-15T00:26:19.132Z,4.30
2024-04-15T00:28:47.039Z,3.80
2024-04-15T00:31:14.210Z,3.70
2024-04-15T00:33:41.303Z,3.10
2024-04-15T00:36:08.337Z,3.20
2024-04-15T00:38:35.377Z,3.10
2024-04-15T00:41:02.363Z,3.50
2024-04-15T00:43:29.371Z,3.50
2024-04-15T00:45:56.511Z,4.40
2024-04-15T00:48:23.467Z,4.90
2024-04-15T00:50:50.658Z,5.10
2024-04-15T00:53:19.759Z,5.20
2024-04-15T00:55:47.793Z,4.80
2024-04-15T00:58:15.021Z,4.20
2024-04-15T01:00:42.230Z,4.00
2024-04-15T01:03:09.350Z,4.20
2024-04-15T01:05:36.662Z,4.00
2024-04-15T01:08:04.062Z,3.70
2024-04-15T01:10:38.638Z,4.00
2024-04-15T01:13:13.789Z,3.90
2024-04-15T01:15:40.883Z,4.20
2024-04-15T01:18:08.087Z,3.60
2024-04-15T01:20:35.191Z,3.90
2024-04-15T01:23:06.467Z,4.20
2024-04-15T01:25:33.531Z,4.40
2024-04-15T01:28:00.882Z,4.80
2024-04-15T01:30:27.980Z,4.30
2024-04-15T01:32:54.976Z,4.40
2024-04-15T01:35:22.011Z,4.00
2024-04-15T01:37:50.169Z,4.10
2024-04-15T01:42:44.586Z,4.20
2024-04-15T01:45:11.945Z,4.50
2024-04-15T01:47:39.238Z,4.30
2024-04-15T01:50:06.612Z,4.60
2024-04-15T01:52:33.660Z,4.60
2024-04-15T01:55:00.776Z,3.70
2024-04-15T01:57:27.936Z,4.20
2024-04-15T01:59:55.098Z,4.80
2024-04-15T02:02:22.154Z,4.50
2024-04-15T02:04:49.385Z,4.80
2024-04-15T02:07:16.637Z,4.50
2024-04-15T02:09:43.702Z,4.60
2024-04-15T02:12:10.668Z,4.20
2024-04-15T02:14:37.637Z,4.20
2024-04-15T02:17:04.633Z,4.10
2024-04-15T02:19:32.102Z,4.20
2024-04-15T02:21:59.846Z,4.20
2024-04-15T02:24:28.526Z,4.10
2024-04-15T02:26:56.125Z,4.20
2024-04-15T02:29:23.295Z,3.80
2024-04-15T02:31:51.231Z,4.30
2024-04-15T02:34:18.462Z,3.60
2024-04-15T02:36:45.816Z,4.30
2024-04-15T02:39:13.397Z,4.20
2024-04-15T02:41:40.648Z,4.10
2024-04-15T02:44:07.897Z,4.50
2024-04-15T02:46:35.091Z,4.10
2024-04-15T02:49:02.119Z,4.40
2024-04-15T02:51:32.035Z,4.30
2024-04-15T02:53:59.295Z,4.60
2024-04-15T02:56:27.474Z,4.10
2024-04-15T03:01:21.857Z,5.10
2024-04-15T03:03:49.195Z,4.10
2024-04-15T03:06:20.367Z,4.40
2024-04-15T03:08:47.731Z,7.10
2024-04-15T03:11:14.879Z,6.30
2024-04-15T03:13:42.047Z,3.90
2024-04-15T03:16:16.512Z,5.90
2024-04-15T03:21:17.157Z,4.20
2024-04-15T03:23:45.922Z,4.40
2024-04-15T03:26:13.018Z,4.40
2024-04-15T03:28:40.182Z,4.50
2024-04-15T03:31:07.931Z,9.30
2024-04-15T03:33:35.135Z,4.60
2024-04-15T03:36:02.289Z,5.60
2024-04-15T03:38:29.508Z,4.80
2024-04-15T03:40:57.348Z,4.70
2024-04-15T03:43:26.505Z,5.40
2024-04-15T03:45:53.618Z,6.10
2024-04-15T03:48:20.704Z,7.10
2024-04-15T03:50:47.859Z,8.60
2024-04-15T03:53:14.960Z,8.30
2024-04-15T03:55:42.026Z,7.20
2024-04-15T03:58:09.374Z,8.20
2024-04-15T04:00:36.616Z,9.90
2024-04-15T04:03:04.011Z,8.10
2024-04-15T04:05:31.336Z,7.00
2024-04-15T04:07:58.524Z,6.70
2024-04-15T04:10:26.214Z,6.60
2024-04-15T04:12:53.905Z,6.60
2024-04-15T04:15:21.368Z,8.30
2024-04-15T04:17:48.869Z,13.20
2024-04-15T04:20:16.270Z,14.20
2024-04-15T04:22:43.369Z,16.40
2024-04-15T04:25:10.699Z,18.60
2024-04-15T04:27:38.029Z,27.80
2024-04-15T04:30:06.366Z,17.40
2024-04-15T04:32:33.692Z,12.00
2024-04-15T04:35:01.248Z,13.20
2024-04-15T04:37:28.867Z,14.20
2024-04-15T04:39:56.510Z,13.40
2024-04-15T04:42:23.635Z,13.70
2024-04-15T04:44:56.862Z,14.90
2024-04-15T04:47:24.201Z,16.20
2024-04-15T04:49:54.746Z,18.80
2024-04-15T04:52:21.948Z,19.00
2024-04-15T04:54:49.951Z,18.40
2024-04-15T04:57:17.654Z,18.80
2024-04-15T04:59:45.435Z,16.70
2024-04-15T05:02:13.443Z,17.40
2024-04-15T05:04:40.860Z,14.30
2024-04-15T05:07:08.051Z,14.10
2024-04-15T05:09:35.286Z,14.80
2024-04-15T05:12:02.779Z,15.00
2024-04-15T05:14:30.100Z,17.40
2024-04-15T05:16:57.189Z,13.90
2024-04-15T05:19:24.261Z,11.80
2024-04-15T05:21:51.414Z,12.50
2024-04-15T05:24:18.705Z,22.60
2024-04-15T05:26:45.667Z,12.90
2024-04-15T05:29:12.828Z,7.30
2024-04-15T05:31:40.154Z,7.30
2024-04-15T05:34:07.975Z,7.00
2024-04-15T05:36:35.291Z,7.40
2024-04-15T05:39:03.322Z,7.40
2024-04-15T05:41:30.668Z,6.80
2024-04-15T05:43:57.741Z,6.80
2024-04-15T05:46:24.959Z,6.50
2024-04-15T05:48:52.125Z,6.20
2024-04-15T05:51:20.933Z,6.60
2024-04-15T05:53:48.168Z,6.40
2024-04-15T05:56:15.886Z,8.10
2024-04-15T05:58:43.376Z,4.90
2024-04-15T06:01:10.725Z,5.90
2024-04-15T06:03:38.584Z,5.10
2024-04-15T06:06:06.127Z,7.60
2024-04-15T06:08:33.452Z,9.00
2024-04-15T06:11:00.819Z,10.10
2024-04-15T06:13:27.696Z,15.10
2024-04-15T06:15:54.580Z,19.00
2024-04-15T06:18:21.388Z,18.00
2024-04-15T06:20:49.530Z,20.70
2024-04-15T06:25:43.928Z,15.50
2024-04-15T06:28:10.877Z,14.10
2024-04-15T06:30:39.306Z,15.70
2024-04-15T06:33:13.013Z,14.20
2024-04-15T06:35:48.660Z,11.10
2024-04-15T06:38:16.772Z,12.80
2024-04-15T06:40:44.236Z,13.00
2024-04-15T06:43:11.654Z,10.10
2024-04-15T06:45:39.477Z,8.20
2024-04-15T06:48:07.603Z,7.00
2024-04-15T06:50:35.429Z,5.30
2024-04-15T06:53:04.826Z,5.50
2024-04-15T06:55:33.457Z,4.90
2024-04-15T06:58:01.143Z,5.60
2024-04-15T07:00:28.373Z,8.10
2024-04-15T07:02:55.824Z,6.30
2024-04-15T07:05:23.185Z,4.60
2024-04-15T07:07:50.449Z,6.40
2024-04-15T07:10:17.740Z,16.20
2024-04-15T07:12:45.684Z,6.40
2024-04-15T07:15:13.045Z,5.50
2024-04-15T07:17:41.579Z,5.20
2024-04-15T07:20:09.317Z,5.10
2024-04-15T07:22:36.683Z,3.90
2024-04-15T07:25:04.602Z,5.10
2024-04-15T07:27:36.733Z,5.70
2024-04-15T07:30:04.627Z,6.60
2024-04-15T07:32:34.500Z,6.40
2024-04-15T07:35:02.053Z,6.80
2024-04-15T07:37:29.548Z,4.40
2024-04-15T07:42:32.250Z,5.90
2024-04-15T07:45:08.015Z,5.40
2024-04-15T07:47:35.780Z,6.50
2024-04-15T07:50:03.770Z,5.80
2024-04-15T07:52:31.233Z,11.40
2024-04-15T07:54:58.624Z,5.40
2024-04-15T07:57:25.979Z,5.10
2024-04-15T07:59:53.431Z,5.60
2024-04-15T08:02:21.676Z,5.00
2024-04-15T08:04:50.078Z,4.80
2024-04-15T08:09:45.623Z,5.90
2024-04-15T08:14:41.358Z,3.90
2024-04-15T08:17:08.905Z,4.00
2024-04-15T08:19:37.820Z,5.50
2024-04-15T08:22:05.324Z,3.30
2024-04-15T08:24:32.669Z,4.70
2024-04-15T08:27:00.108Z,3.40
2024-04-15T08:29:28.934Z,4.10
2024-04-15T08:32:01.888Z,4.40
2024-04-15T08:37:14.923Z,6.20
2024-04-15T08:39:43.097Z,3.90
2024-04-15T08:42:19.852Z,4.90
2024-04-15T08:44:49.284Z,17.40
2024-04-15T08:47:32.176Z,5.40
2024-04-15T08:49:59.853Z,3.40
2024-04-15T08:52:27.180Z,4.10
2024-04-15T08:54:54.136Z,5.20
2024-04-15T08:57:21.104Z,5.50
2024-04-15T08:59:48.020Z,5.20
2024-04-15T09:02:17.707Z,8.70
2024-04-15T09:04:45.007Z,6.00
2024-04-15T09:07:12.092Z,4.70
2024-04-15T09:09:39.106Z,3.70
2024-04-15T09:12:07.749Z,5.20
2024-04-15T09:14:38.286Z,5.10
2024-04-15T09:17:06.774Z,9.60
2024-04-15T09:19:34.022Z,4.70
2024-04-15T09:22:01.805Z,6.10
2024-04-15T09:24:29.638Z,6.00
2024-04-15T09:26:56.502Z,3.20
2024-04-15T09:29:23.498Z,4.00
2024-04-15T09:31:50.526Z,3.80
2024-04-15T09:34:18.107Z,5.00
2024-04-15T09:36:57.813Z,3.60
2024-04-15T09:39:25.120Z,4.00
2024-04-15T09:41:54.477Z,7.20
2024-04-15T09:44:21.771Z,4.70
2024-04-15T09:46:48.928Z,3.70
2024-04-15T09:49:16.272Z,4.30
2024-04-15T09:51:43.440Z,4.70
2024-04-15T09:54:11.315Z,6.10
2024-04-15T09:56:48.451Z,2.80
2024-04-15T09:59:15.977Z,3.40
2024-04-15T10:01:43.880Z,4.70
2024-04-15T10:04:25.001Z,14.20
2024-04-15T10:06:59.747Z,4.40
2024-04-15T10:09:26.727Z,3.40
2024-04-15T10:11:53.736Z,4.80
2024-04-15T10:14:20.997Z,4.40
2024-04-15T10:16:48.645Z,2.90
2024-04-15T10:19:28.158Z,5.20
2024-04-15T10:21:55.986Z,3.10
2024-04-15T10:24:23.319Z,4.00
2024-04-15T10:26:50.119Z,4.70
2024-04-15T10:29:22.137Z,3.80
2024-04-15T10:31:53.225Z,5.10
2024-04-15T10:34:22.551Z,5.20
2024-04-15T10:36:50.269Z,6.00
2024-04-15T10:39:17.774Z,4.70
2024-04-15T10:41:45.425Z,4.90
2024-04-15T10:44:12.515Z,4.20
2024-04-15T10:46:46.143Z,3.80
2024-04-15T10:49:13.913Z,3.90
2024-04-15T10:51:41.754Z,5.60
2024-04-15T10:54:09.792Z,15.20
2024-04-15T10:56:37.061Z,11.80
2024-04-15T10:59:04.211Z,5.80
2024-04-15T11:01:31.054Z,5.10
2024-04-15T11:04:06.140Z,4.10
2024-04-15T11:06:34.478Z,5.70
2024-04-15T11:09:01.341Z,12.40
2024-04-15T11:11:28.345Z,6.20
2024-04-15T11:13:55.859Z,5.40
2024-04-15T11:16:23.145Z,3.20
2024-04-15T11:18:51.898Z,3.90
2024-04-15T11:21:19.419Z,4.20
2024-04-15T11:23:46.354Z,3.90
2024-04-15T11:26:14.180Z,5.20
2024-04-15T11:28:41.966Z,5.00
2024-04-15T11:31:09.006Z,4.20
2024-04-15T11:33:36.251Z,2.90
2024-04-15T11:36:03.737Z,6.40
2024-04-15T11:38:31.404Z,3.40
2024-04-15T11:40:58.625Z,4.70
2024-04-15T11:43:26.055Z,3.50
2024-04-15T11:45:54.952Z,9.00
2024-04-15T11:48:23.304Z,4.40
2024-04-15T11:50:50.580Z,3.90
2024-04-15T11:53:24.860Z,5.20
2024-04-15T11:55:55.664Z,4.70
2024-04-15T11:58:23.609Z,11.40
2024-04-15T12:00:52.743Z,4.70
2024-04-15T12:03:23.139Z,3.80
2024-04-15T12:05:54.886Z,3.50
2024-04-15T12:08:25.952Z,3.40
2024-04-15T12:10:53.315Z,3.30
2024-04-15T12:13:20.764Z,3.90
2024-04-15T12:15:47.890Z,3.70
2024-04-15T12:18:15.334Z,6.10
2024-04-15T12:23:10.846Z,3.70
2024-04-15T12:25:38.090Z,4.30
2024-04-15T12:28:05.691Z,4.70
2024-04-15T12:30:33.296Z,4.10
2024-04-15T12:33:01.599Z,4.00
2024-04-15T12:35:28.716Z,4.00
2024-04-15T12:37:56.059Z,5.50
2024-04-15T12:40:23.605Z,4.00
2024-04-15T12:42:50.829Z,5.50
2024-04-15T12:45:20.797Z,4.50
2024-04-15T12:47:47.894Z,5.00
2024-04-15T12:50:15.170Z,6.20
2024-04-15T12:52:42.745Z,4.40
2024-04-15T12:57:39.836Z,3.60
2024-04-15T13:00:07.612Z,6.00
2024-04-15T13:05:04.787Z,4.70
2024-04-15T13:07:31.980Z,8.80
2024-04-15T13:09:59.076Z,5.00
2024-04-15T13:12:26.548Z,5.60
2024-04-15T13:14:53.447Z,7.40
2024-04-15T13:17:20.446Z,5.70
2024-04-15T13:19:47.881Z,6.00
2024-04-15T13:22:15.229Z,11.10
2024-04-15T13:24:42.261Z,8.20
2024-04-15T13:27:09.440Z,4.00
2024-04-15T13:29:36.585Z,5.30
2024-04-15T13:32:13.516Z,3.80
2024-04-15T13:34:45.225Z,6.10
2024-04-15T13:39:42.120Z,4.80
2024-04-15T13:42:10.851Z,4.20
2024-04-15T13:44:38.090Z,8.10
2024-04-15T13:47:05.497Z,5.40
2024-04-15T13:49:32.543Z,5.70
2024-04-15T13:52:01.733Z,7.30
2024-04-15T13:54:29.298Z,5.10
2024-04-15T13:56:56.933Z,4.80
2024-04-15T13:59:24.382Z,5.90
2024-04-15T14:01:51.189Z,5.30
2024-04-15T14:04:18.340Z,5.10
2024-04-15T14:06:45.275Z,6.60
2024-04-15T14:09:14.872Z,5.20
2024-04-15T14:11:42.071Z,4.60
2024-04-15T14:14:09.393Z,4.20
2024-04-15T14:16:36.249Z,5.40
2024-04-15T14:19:03.634Z,4.90
2024-04-15T14:21:30.688Z,5.30
2024-04-15T14:23:58.609Z,6.10
2024-04-15T14:26:26.198Z,3.80
2024-04-15T14:28:53.319Z,9.60
2024-04-15T14:31:20.757Z,5.50
2024-04-15T14:33:48.132Z,5.80
2024-04-15T14:36:15.920Z,4.10
2024-04-15T14:38:45.883Z,5.00
2024-04-15T14:41:13.141Z,5.10
2024-04-15T14:43:40.237Z,4.40
2024-04-15T14:46:07.240Z,4.90
2024-04-15T14:48:34.281Z,5.00
2024-04-15T14:51:01.630Z,5.40
2024-04-15T14:53:30.604Z,5.20
2024-04-15T14:55:57.922Z,7.00
2024-04-15T14:58:24.970Z,12.90
2024-04-15T15:00:52.009Z,4.80
2024-04-15T15:03:19.130Z,4.00
2024-04-15T15:05:46.264Z,4.90
2024-04-15T15:08:13.270Z,4.40
2024-04-15T15:10:40.266Z,4.60
2024-04-15T15:13:07.322Z,6.60
2024-04-15T15:15:35.016Z,3.90
2024-04-15T15:18:02.201Z,5.10
2024-04-15T15:20:29.123Z,5.30
2024-04-15T15:22:56.289Z,3.70
2024-04-15T15:25:24.425Z,6.00
2024-04-15T15:27:52.784Z,5.40
2024-04-15T15:30:22.914Z,6.10
2024-04-15T15:32:50.873Z,7.90
2024-04-15T15:35:18.474Z,4.20
2024-04-15T15:37:45.643Z,5.10
2024-04-15T15:40:13.238Z,3.60
2024-04-15T15:42:40.388Z,3.10
2024-04-15T15:45:07.811Z,3.10
2024-04-15T15:50:03.253Z,3.30
2024-04-15T15:52:30.322Z,2.90
2024-04-15T15:54:58.367Z,4.50
2024-04-15T15:57:26.568Z,3.80
2024-04-15T15:59:56.076Z,4.50
2024-04-15T16:02:30.442Z,5.70
2024-04-15T16:05:04.299Z,4.00
2024-04-15T16:07:31.316Z,4.20
2024-04-15T16:09:58.647Z,3.60
2024-04-15T16:12:26.126Z,3.50
2024-04-15T16:14:53.287Z,3.40
2024-04-15T16:17:20.406Z,3.40
2024-04-15T16:19:47.644Z,3.10
2024-04-15T16:22:14.680Z,3.50
2024-04-15T16:24:43.263Z,4.50
2024-04-15T16:27:13.405Z,2.90
2024-04-15T16:29:40.792Z,3.50
2024-04-15T16:32:10.893Z,3.50
2024-04-15T16:34:39.473Z,2.80
2024-04-15T16:37:09.092Z,3.10
2024-04-15T16:39:36.387Z,4.70
2024-04-15T16:42:04.325Z,3.90
2024-04-15T16:46:58.497Z,3.70
2024-04-15T16:49:31.828Z,2.90
2024-04-15T16:51:59.196Z,3.40
2024-04-15T16:54:26.198Z,4.10
2024-04-15T16:56:53.618Z,3.60
2024-04-15T16:59:20.896Z,4.20
2024-04-15T17:01:47.901Z,11.40
2024-04-15T17:04:14.981Z,3.60
2024-04-15T17:06:42.550Z,3.80
2024-04-15T17:09:09.643Z,3.60
2024-04-15T17:11:37.012Z,3.60
2024-04-15T17:14:04.082Z,4.20
2024-04-15T17:16:31.341Z,4.70
2024-04-15T17:18:58.511Z,3.90
2024-04-15T17:21:25.653Z,3.30
2024-04-15T17:23:52.658Z,3.00
2024-04-15T17:26:19.619Z,3.10
2024-04-15T17:28:46.610Z,3.10
2024-04-15T17:31:13.791Z,3.20
2024-04-15T17:33:40.958Z,4.40
2024-04-15T17:36:08.267Z,3.20
2024-04-15T17:38:35.274Z,3.50
2024-04-15T17:41:02.837Z,3.50
2024-04-15T17:43:30.731Z,3.50
2024-04-15T17:45:59.390Z,3.40
2024-04-15T17:48:27.045Z,3.20
2024-04-15T17:50:54.092Z,3.30
2024-04-15T17:53:21.104Z,7.30
2024-04-15T17:58:15.970Z,3.30
2024-04-15T18:00:43.103Z,3.80
2024-04-15T18:03:10.174Z,3.30
2024-04-15T18:05:37.388Z,3.30
2024-04-15T18:08:04.703Z,3.30
2024-04-15T18:10:31.993Z,3.50
2024-04-15T18:12:59.406Z,3.60
2024-04-15T18:15:26.686Z,2.90
2024-04-15T18:17:55.067Z,3.50
2024-04-15T18:20:22.244Z,3.60
2024-04-15T18:22:49.448Z,3.80
2024-04-15T18:25:16.503Z,3.90
2024-04-15T18:27:43.923Z,3.90
2024-04-15T18:30:11.630Z,3.80
2024-04-15T18:32:38.931Z,3.40
2024-04-15T18:35:06.140Z,3.20
2024-04-15T18:37:33.278Z,3.60
2024-04-15T18:40:00.511Z,4.00
2024-04-15T18:42:27.923Z,4.10
2024-04-15T18:45:27.994Z,3.80
2024-04-15T18:47:55.043Z,4.20
2024-04-15T18:50:23.874Z,3.20
2024-04-15T18:52:51.280Z,4.10
2024-04-15T18:55:18.289Z,3.80
2024-04-15T18:57:45.432Z,4.00
2024-04-15T19:00:13.225Z,4.90
2024-04-15T19:02:40.394Z,3.50
2024-04-15T19:05:07.563Z,3.40
2024-04-15T19:07:34.778Z,3.30
2024-04-15T19:10:01.856Z,2.70
2024-04-15T19:12:28.911Z,3.50
2024-04-15T19:15:05.982Z,2.90
2024-04-15T19:17:40.744Z,2.90
2024-04-15T19:20:09.126Z,3.70
2024-04-15T19:22:36.287Z,2.80
2024-04-15T19:25:03.832Z,2.60
2024-04-15T19:27:30.885Z,2.50
2024-04-15T19:29:58.085Z,2.90
2024-04-15T19:32:25.306Z,2.50
2024-04-15T19:34:52.525Z,2.80
2024-04-15T19:37:19.692Z,2.50
2024-04-15T19:39:47.235Z,2.60
2024-04-15T19:42:14.239Z,2.50
2024-04-15T19:44:41.322Z,2.80
2024-04-15T19:47:08.326Z,2.50
2024-04-15T19:49:35.423Z,3.20
2024-04-15T19:52:02.443Z,2.50
2024-04-15T19:54:29.429Z,3.10
2024-04-15T19:56:57.095Z,2.70
2024-04-15T19:59:24.130Z,2.50
2024-04-15T20:01:51.634Z,2.10
2024-04-15T20:04:18.637Z,1.90
2024-04-15T20:06:45.630Z,2.60
2024-04-15T20:09:12.767Z,2.50
2024-04-15T20:11:39.640Z,2.30
2024-04-15T20:14:09.386Z,2.60
2024-04-15T20:16:36.814Z,2.60
2024-04-15T20:19:06.366Z,2.90
2024-04-15T20:21:33.884Z,2.70
2024-04-15T20:24:00.879Z,2.90
2024-04-15T20:26:29.736Z,2.30
2024-04-15T20:28:56.684Z,2.60
2024-04-15T20:31:23.663Z,2.40
2024-04-15T20:33:50.966Z,3.00
2024-04-15T20:36:17.857Z,2.80
2024-04-15T20:38:45.023Z,2.50
2024-04-15T20:41:12.369Z,2.70
2024-04-15T20:43:39.639Z,2.80
2024-04-15T20:46:08.343Z,2.80
2024-04-15T20:48:35.445Z,2.50
2024-04-15T20:51:02.518Z,2.70
2024-04-15T20:53:30.531Z,2.30
2024-04-15T20:55:58.013Z,2.30
2024-04-15T20:58:25.148Z,2.50
2024-04-15T21:00:52.143Z,3.70
2024-04-15T21:03:19.414Z,2.50
2024-04-15T21:05:46.590Z,2.00
2024-04-15T21:08:13.561Z,2.80
2024-04-15T21:10:40.734Z,2.80
2024-04-15T21:13:08.202Z,2.30
2024-04-15T21:15:35.082Z,2.30
2024-04-15T21:18:02.074Z,2.60
2024-04-15T21:20:29.724Z,2.30
2024-04-15T21:22:56.702Z,2.20
2024-04-15T21:25:23.698Z,2.50
2024-04-15T21:27:55.778Z,2.80
2024-04-15T21:30:23.324Z,2.10
2024-04-15T21:32:50.389Z,2.50
2024-04-15T21:35:17.315Z,2.60
2024-04-15T21:37:44.480Z,2.80
2024-04-15T21:40:11.842Z,2.60
2024-04-15T21:42:38.974Z,3.00
2024-04-15T21:47:52.495Z,3.00
2024-04-15T21:52:46.670Z,3.10
2024-04-15T21:55:13.766Z,3.10
2024-04-15T21:57:40.833Z,2.90
2024-04-15T22:00:08.192Z,4.00
2024-04-15T22:02:37.833Z,3.40
2024-04-15T22:05:05.044Z,4.40
2024-04-15T22:07:32.421Z,4.30
2024-04-15T22:10:00.371Z,4.50
2024-04-15T22:12:27.359Z,4.30
2024-04-15T22:14:54.406Z,4.20
2024-04-15T22:17:24.942Z,5.70
2024-04-15T22:19:51.964Z,4.60
2024-04-15T22:22:19.483Z,5.80
2024-04-15T22:24:47.973Z,4.90
2024-04-15T22:27:14.975Z,5.20
2024-04-15T22:29:41.982Z,5.40
2024-04-15T22:32:08.925Z,5.20
2024-04-15T22:34:35.915Z,5.30
2024-04-15T22:37:03.010Z,4.60
2024-04-15T22:39:30.117Z,4.50
2024-04-15T22:41:58.390Z,4.70
2024-04-15T22:46:52.239Z,3.90
2024-04-15T22:49:19.379Z,4.20
2024-04-15T22:51:46.430Z,3.80
2024-04-15T22:54:13.412Z,3.90
2024-04-15T22:56:40.406Z,3.60
2024-04-15T22:59:07.402Z,3.80
2024-04-15T23:01:34.470Z,3.50
2024-04-15T23:04:01.600Z,3.80
2024-04-15T23:06:28.837Z,3.30
2024-04-15T23:08:55.823Z,3.70
2024-04-15T23:11:22.792Z,4.10
2024-04-15T23:13:49.895Z,3.80
2024-04-15T23:16:17.105Z,3.60
2024-04-15T23:18:44.561Z,4.30
2024-04-15T23:21:11.480Z,3.50
2024-04-15T23:23:39.103Z,3.80
2024-04-15T23:26:05.989Z,3.80
2024-04-15T23:28:33.286Z,3.60
2024-04-15T23:31:01.438Z,3.80
2024-04-15T23:35:55.924Z,3.90
2024-04-15T23:38:22.819Z,3.90
2024-04-15T23:40:49.878Z,3.80
2024-04-15T23:43:16.885Z,3.50
2024-04-15T23:46:02.734Z,3.80
2024-04-15T23:48:48.610Z,3.10
2024-04-15T23:51:34.093Z,4.20
2024-04-15T23:54:20.261Z,3.60
2024-04-15T23:57:05.714Z,3.60
2024-04-15T23:59:32.659Z,4.70
